createdAt,value
2022-10-15T00:07:53.165Z,0.7
2022-10-15T00:19:53.167Z,0.7
2022-10-15T00:31:53.276Z,0.7
2022-10-15T00:43:53.264Z,0.7
2022-10-15T00:55:53.276Z,0.7
2022-10-15T01:07:53.168Z,0.7
2022-10-15T01:19:53.168Z,0.7
2022-10-15T01:31:53.202Z,0.7
2022-10-15T01:43:53.248Z,0.7
2022-10-15T01:55:53.168Z,1.0
2022-10-15T02:07:53.281Z,1.0
2022-10-15T02:19:53.343Z,1.7
2022-10-15T02:31:53.293Z,1.7
2022-10-15T02:43:53.214Z,1.7
2022-10-15T02:55:53.230Z,0.6
2022-10-15T03:07:53.249Z,0.6
2022-10-15T03:19:53.168Z,0.5
2022-10-15T03:31:53.191Z,0.5
2022-10-15T03:43:53.245Z,0.5
2022-10-15T03:55:53.278Z,0.5
2022-10-15T04:07:53.166Z,0.5
2022-10-15T04:19:53.226Z,0.5
2022-10-15T04:31:53.230Z,0.5
2022-10-15T04:43:53.164Z,0.5
2022-10-15T04:55:53.165Z,0.4
2022-10-15T05:07:53.173Z,0.4
2022-10-15T05:19:53.168Z,0.4
2022-10-15T05:31:53.179Z,0.4
2022-10-15T05:43:53.177Z,0.4
2022-10-15T05:55:53.174Z,0.4
2022-10-15T06:07:53.172Z,0.4
2022-10-15T06:19:53.280Z,0.3
2022-10-15T06:31:53.267Z,0.3
2022-10-15T06:55:53.163Z,0.4
2022-10-15T07:07:53.279Z,0.4
2022-10-15T07:19:53.262Z,0.4
2022-10-15T07:31:53.169Z,0.4
2022-10-15T07:43:53.271Z,0.4
2022-10-15T07:55:53.330Z,0.9
2022-10-15T08:07:53.250Z,0.9
2022-10-15T08:19:53.248Z,0.5
2022-10-15T08:31:53.192Z,0.5
2022-10-15T08:43:53.235Z,0.5
2022-10-15T08:55:53.229Z,0.4
2022-10-15T09:07:54.529Z,0.4
2022-10-15T09:19:53.282Z,0.4
2022-10-15T09:31:53.285Z,0.4
2022-10-15T09:43:53.170Z,0.4
2022-10-15T09:55:53.175Z,0.4
2022-10-15T10:07:53.165Z,0.4
2022-10-15T10:19:53.250Z,0.6
2022-10-15T10:31:53.169Z,0.6
2022-10-15T10:43:53.259Z,0.6
2022-10-15T10:55:53.172Z,0.6
2022-10-15T11:07:53.250Z,0.6
2022-10-15T11:20:24.924Z,0.6
2022-10-15T11:32:02.036Z,0.6
2022-10-15T11:43:53.165Z,0.6
2022-10-15T11:55:53.167Z,0.6
2022-10-15T12:07:53.188Z,0.6
2022-10-15T12:19:53.159Z,1.0
2022-10-15T12:31:53.187Z,1.0
2022-10-15T12:43:53.163Z,1.0
2022-10-15T12:55:53.162Z,0.7
2022-10-15T13:07:53.160Z,0.7
2022-10-15T13:19:53.165Z,0.8
2022-10-15T13:31:53.174Z,0.8
2022-10-15T13:43:53.167Z,0.8
2022-10-15T13:55:53.161Z,1.0
2022-10-15T14:07:53.168Z,1.0
2022-10-15T14:20:08.268Z,2.6
2022-10-15T14:31:53.241Z,2.6
2022-10-15T14:43:53.161Z,2.6
2022-10-15T14:55:53.161Z,0.9
2022-10-15T15:07:53.216Z,0.9
2022-10-15T15:19:53.255Z,1.2
2022-10-15T15:31:53.166Z,1.2
2022-10-15T15:43:53.166Z,1.2
2022-10-15T15:55:53.241Z,0.7
2022-10-15T16:07:53.173Z,0.7
2022-10-15T16:19:53.160Z,1.4
2022-10-15T16:31:53.177Z,1.4
2022-10-15T16:43:53.163Z,1.4
2022-10-15T16:55:53.166Z,2.3
2022-10-15T17:07:53.160Z,2.3
2022-10-15T17:19:53.160Z,0.7
2022-10-15T17:31:53.169Z,0.7
2022-10-15T17:43:53.165Z,0.7
2022-10-15T17:55:53.320Z,2.8
2022-10-15T18:07:53.230Z,2.8
2022-10-15T18:19:53.201Z,2.6
2022-10-15T18:31:57.439Z,2.6
2022-10-15T18:43:53.324Z,2.6
2022-10-15T18:55:53.300Z,2.2
2022-10-15T19:07:53.291Z,2.2
2022-10-15T19:19:53.417Z,1.7
2022-10-15T19:31:53.496Z,1.7
2022-10-15T19:43:53.354Z,1.7
2022-10-15T19:55:53.439Z,2.4
2022-10-15T20:07:53.368Z,2.4
2022-10-15T20:19:53.496Z,0.7
2022-10-15T20:31:55.975Z,0.7
2022-10-15T20:43:53.428Z,0.7
2022-10-15T20:55:53.167Z,1.2
2022-10-15T21:07:53.163Z,1.2
2022-10-15T21:19:53.206Z,2.0
2022-10-15T21:31:53.244Z,2.0
2022-10-15T21:43:53.327Z,2.0
2022-10-15T21:55:53.245Z,1.2
2022-10-15T22:07:53.246Z,1.2
2022-10-15T22:19:53.267Z,0.5
2022-10-15T22:31:53.175Z,0.5
2022-10-15T22:43:53.281Z,0.5
2022-10-15T22:55:53.175Z,0.8
2022-10-15T23:07:53.161Z,0.8
2022-10-15T23:19:53.256Z,0.8
2022-10-15T23:31:53.236Z,0.8
2022-10-15T23:43:53.248Z,0.8
2022-10-15T23:55:53.267Z,0.8
